Time;durP1;ratioP1;P1;durP2;ratioP2;P2;SDS_P1;SDS_P2;PMS_P1;PMS_P2;Temp;Humidity;BMP_temperature;BMP_pressure;BME280_temperature;BME280_humidity;BME280_pressure;Samples;Min_cycle;Max_cycle;Signal;HPM_P1;HPM_P2
2023/05/10 00:02:17;;;;;;;9.82;2.20;;;;;;;;;;4979282;28;20042;-74
2023/05/10 00:04:43;;;;;;;10.05;2.72;;;;;;;;;;4976656;28;20095;-75
2023/05/10 00:07:10;;;;;;;9.02;2.30;;;;;;;;;;4973737;28;20085;-75
2023/05/10 00:09:36;;;;;;;7.63;1.90;;;;;;;;;;4975477;28;20485;-75
2023/05/10 00:12:02;;;;;;;9.07;2.05;;;;;;;;;;4960532;28;20750;-74
2023/05/10 00:14:28;;;;;;;8.40;2.20;;;;;;;;;;4979517;28;20532;-74
2023/05/10 00:16:54;;;;;;;9.93;2.15;;;;;;;;;;4972348;28;20030;-75
2023/05/10 00:19:20;;;;;;;9.60;2.03;;;;;;;;;;4969954;28;20038;-75
2023/05/10 00:21:47;;;;;;;6.68;1.85;;;;;;;;;;4973137;28;20030;-74
2023/05/10 00:24:13;;;;;;;10.45;2.05;;;;;;;;;;4971229;28;20340;-75
2023/05/10 00:26:39;;;;;;;9.38;2.35;;;;;;;;;;4967924;28;20030;-75
2023/05/10 00:29:05;;;;;;;7.22;1.65;;;;;;;;;;4974246;28;20034;-74
2023/05/10 00:31:31;;;;;;;7.50;1.77;;;;;;;;;;4959117;28;20045;-74
2023/05/10 00:33:57;;;;;;;10.85;2.10;;;;;;;;;;4952943;28;20038;-74
2023/05/10 00:36:23;;;;;;;10.05;2.13;;;;;;;;;;4974009;28;20035;-75
2023/05/10 00:38:50;;;;;;;10.25;1.85;;;;;;;;;;4963369;28;20034;-75
2023/05/10 00:41:16;;;;;;;9.23;2.00;;;;;;;;;;4956502;28;20034;-75
2023/05/10 00:43:42;;;;;;;9.07;1.88;;;;;;;;;;4969556;28;20386;-75
2023/05/10 00:46:08;;;;;;;6.10;1.63;;;;;;;;;;4971776;28;20050;-75
2023/05/10 00:48:35;;;;;;;7.32;1.73;;;;;;;;;;4971030;28;20062;-75
2023/05/10 00:51:01;;;;;;;8.93;1.90;;;;;;;;;;4970539;28;20364;-75
2023/05/10 00:53:28;;;;;;;9.77;1.63;;;;;;;;;;4970322;28;20137;-74
2023/05/10 00:55:54;;;;;;;6.55;1.33;;;;;;;;;;4968512;28;21006;-75
2023/05/10 00:58:20;;;;;;;8.38;1.60;;;;;;;;;;4973377;28;20041;-75
2023/05/10 01:00:48;;;;;;;10.07;1.80;;;;;;;;;;4953552;28;20112;-74
2023/05/10 01:03:14;;;;;;;9.10;1.83;;;;;;;;;;4973264;28;20038;-74
2023/05/10 01:05:40;;;;;;;8.60;1.50;;;;;;;;;;4950745;28;20030;-75
2023/05/10 01:08:08;;;;;;;7.60;1.42;;;;;;;;;;4973565;28;20519;-75
2023/05/10 01:10:34;;;;;;;7.75;1.70;;;;;;;;;;4970910;28;20085;-74
2023/05/10 01:13:00;;;;;;;8.98;1.50;;;;;;;;;;4968567;28;20843;-74
2023/05/10 01:15:27;;;;;;;8.80;1.60;;;;;;;;;;4954210;28;20788;-75
2023/05/10 01:17:54;;;;;;;11.23;1.25;;;;;;;;;;4954922;28;20485;-75
2023/05/10 01:20:20;;;;;;;5.75;1.15;;;;;;;;;;4971603;28;20445;-75
2023/05/10 01:23:11;;;;;;;7.80;1.30;;;;;;;;;;4951041;28;20045;-74
2023/05/10 01:25:37;;;;;;;8.00;1.60;;;;;;;;;;4954007;28;20210;-74
2023/05/10 01:28:06;;;;;;;5.45;1.10;;;;;;;;;;4972103;28;20030;-75
2023/05/10 01:30:45;;;;;;;8.63;1.30;;;;;;;;;;4971562;28;20030;-75
2023/05/10 01:33:26;;;;;;;6.05;1.10;;;;;;;;;;4971739;28;20053;-74
2023/05/10 01:35:59;;;;;;;5.68;1.27;;;;;;;;;;4969740;28;20394;-74
2023/05/10 01:38:28;;;;;;;8.82;1.48;;;;;;;;;;4972318;28;20029;-75
2023/05/10 01:41:13;;;;;;;7.47;1.23;;;;;;;;;;4966073;28;20045;-75
2023/05/10 01:43:59;;;;;;;6.15;1.10;;;;;;;;;;4966777;28;20030;-74
2023/05/10 01:46:29;;;;;;;5.20;0.90;;;;;;;;;;4968146;28;20187;-74
2023/05/10 01:48:57;;;;;;;8.05;1.50;;;;;;;;;;4951223;28;20837;-74
2023/05/10 01:51:28;;;;;;;7.20;1.42;;;;;;;;;;4952196;28;20369;-74
2023/05/10 01:53:57;;;;;;;9.60;1.52;;;;;;;;;;4969809;28;20034;-74
2023/05/10 01:56:24;;;;;;;6.70;1.20;;;;;;;;;;4953294;28;20100;-75
2023/05/10 01:58:51;;;;;;;6.85;1.25;;;;;;;;;;4970207;28;20022;-74
2023/05/10 02:01:20;;;;;;;4.30;0.95;;;;;;;;;;4951215;28;20552;-74
2023/05/10 02:03:47;;;;;;;5.25;1.02;;;;;;;;;;4966885;28;20278;-74
2023/05/10 02:06:14;;;;;;;4.70;0.90;;;;;;;;;;4975386;28;20037;-74
2023/05/10 02:08:40;;;;;;;6.18;1.20;;;;;;;;;;4968669;28;20026;-74
2023/05/10 02:11:07;;;;;;;5.70;1.02;;;;;;;;;;4973670;28;20034;-74
2023/05/10 02:13:34;;;;;;;7.50;1.40;;;;;;;;;;4956116;28;20607;-74
2023/05/10 02:16:02;;;;;;;7.85;1.10;;;;;;;;;;4969703;28;20038;-75
2023/05/10 02:18:29;;;;;;;6.40;1.02;;;;;;;;;;4956140;28;20026;-74
2023/05/10 02:20:56;;;;;;;6.90;0.90;;;;;;;;;;4969086;28;20030;-74
2023/05/10 02:23:23;;;;;;;5.05;1.02;;;;;;;;;;4952225;28;20046;-74
2023/05/10 02:37:47;;;;;;;4.10;0.80;;;;;;;;;;5036573;28;20552;-74
2023/05/10 02:40:16;;;;;;;5.50;0.80;;;;;;;;;;5038651;28;20616;-73
2023/05/10 02:42:44;;;;;;;5.68;1.23;;;;;;;;;;5036832;28;20024;-72
2023/05/10 02:45:14;;;;;;;5.13;0.95;;;;;;;;;;5039156;28;20908;-73
2023/05/10 02:47:40;;;;;;;4.47;0.80;;;;;;;;;;5063445;28;20029;-73
2023/05/10 02:50:07;;;;;;;4.97;1.00;;;;;;;;;;5039785;28;20605;-73
2023/05/10 02:52:44;;;;;;;4.72;1.00;;;;;;;;;;5039976;28;20075;-73
2023/05/10 02:55:13;;;;;;;3.97;0.70;;;;;;;;;;5037961;28;20096;-73
2023/05/10 02:57:41;;;;;;;3.28;0.75;;;;;;;;;;5036757;28;20108;-74
2023/05/10 03:00:08;;;;;;;3.88;0.63;;;;;;;;;;5039405;28;20052;-74
2023/05/10 03:02:36;;;;;;;4.95;0.90;;;;;;;;;;5038318;28;20024;-74
2023/05/10 03:05:03;;;;;;;5.68;0.90;;;;;;;;;;5035224;28;20024;-74
2023/05/10 03:07:29;;;;;;;4.15;0.80;;;;;;;;;;5040251;28;20074;-74
2023/05/10 03:09:55;;;;;;;3.85;0.70;;;;;;;;;;5040870;28;20143;-74
2023/05/10 03:12:22;;;;;;;3.92;0.70;;;;;;;;;;5039942;28;20060;-74
2023/05/10 03:14:51;;;;;;;5.38;0.90;;;;;;;;;;5036189;28;20025;-74
2023/05/10 03:17:30;;;;;;;6.50;1.08;;;;;;;;;;5039184;28;20025;-76
2023/05/10 03:20:04;;;;;;;4.30;0.85;;;;;;;;;;5022886;28;20032;-73
2023/05/10 03:22:47;;;;;;;5.07;1.02;;;;;;;;;;5041028;28;20028;-72
2023/05/10 03:25:16;;;;;;;1.80;0.50;;;;;;;;;;5036640;28;20558;-73
2023/05/10 03:27:43;;;;;;;2.40;0.60;;;;;;;;;;5034482;28;20082;-73
2023/05/10 03:30:11;;;;;;;3.90;0.80;;;;;;;;;;5037647;28;20029;-73
2023/05/10 03:32:37;;;;;;;4.45;0.60;;;;;;;;;;5035613;28;20025;-73
2023/05/10 03:35:08;;;;;;;6.15;0.77;;;;;;;;;;5038076;28;20028;-76
2023/05/10 03:37:34;;;;;;;2.97;0.60;;;;;;;;;;5028488;28;20045;-73
2023/05/10 03:40:00;;;;;;;4.38;0.60;;;;;;;;;;5026821;28;20036;-73
2023/05/10 03:42:27;;;;;;;3.33;0.70;;;;;;;;;;5022970;28;20529;-73
2023/05/10 03:44:53;;;;;;;3.47;0.52;;;;;;;;;;5024262;28;20033;-73
2023/05/10 03:47:19;;;;;;;2.80;0.60;;;;;;;;;;5026031;28;20060;-73
2023/05/10 03:49:45;;;;;;;2.42;0.70;;;;;;;;;;5022524;28;20036;-73
2023/05/10 03:52:11;;;;;;;5.15;0.90;;;;;;;;;;5024852;28;20107;-73
2023/05/10 03:54:38;;;;;;;3.92;0.57;;;;;;;;;;5022465;28;20035;-73
2023/05/10 03:57:04;;;;;;;4.85;0.90;;;;;;;;;;5023079;28;20523;-73
2023/05/10 03:59:30;;;;;;;9.35;0.80;;;;;;;;;;5024815;28;20094;-74
2023/05/10 04:01:57;;;;;;;3.20;0.63;;;;;;;;;;5022232;28;20025;-74
2023/05/10 04:04:23;;;;;;;3.28;0.68;;;;;;;;;;5025784;28;20037;-73
2023/05/10 04:06:49;;;;;;;2.47;0.50;;;;;;;;;;5023956;28;20045;-73
2023/05/10 04:09:16;;;;;;;3.70;0.70;;;;;;;;;;5024891;28;20061;-73
2023/05/10 04:11:43;;;;;;;3.42;0.70;;;;;;;;;;5016963;28;20025;-73
2023/05/10 04:14:09;;;;;;;6.97;0.98;;;;;;;;;;5024028;28;20029;-73
2023/05/10 04:16:35;;;;;;;3.92;0.90;;;;;;;;;;5022598;28;20037;-74
2023/05/10 04:19:02;;;;;;;3.92;0.93;;;;;;;;;;5024971;28;20071;-73
2023/05/10 04:21:28;;;;;;;4.57;1.05;;;;;;;;;;5022135;28;20036;-72
2023/05/10 04:23:54;;;;;;;3.40;0.70;;;;;;;;;;5022252;28;20029;-73
2023/05/10 04:26:21;;;;;;;6.32;1.48;;;;;;;;;;5023186;28;20033;-73
2023/05/10 04:28:48;;;;;;;5.20;1.05;;;;;;;;;;5021566;28;20360;-74
2023/05/10 04:31:14;;;;;;;3.90;1.00;;;;;;;;;;5020285;28;20607;-73
2023/05/10 04:33:40;;;;;;;7.55;1.25;;;;;;;;;;5024379;28;20994;-73
2023/05/10 04:36:06;;;;;;;6.47;1.40;;;;;;;;;;5022353;28;20309;-73
2023/05/10 04:38:33;;;;;;;2.92;0.93;;;;;;;;;;5024053;28;20043;-73
2023/05/10 04:41:06;;;;;;;7.05;1.10;;;;;;;;;;5023821;28;20029;-73
2023/05/10 04:43:33;;;;;;;7.25;1.40;;;;;;;;;;5022339;28;20064;-73
2023/05/10 04:45:59;;;;;;;6.00;1.35;;;;;;;;;;5024356;28;20415;-73
2023/05/10 04:48:25;;;;;;;7.97;1.50;;;;;;;;;;5022757;28;20036;-73
2023/05/10 04:50:51;;;;;;;12.23;1.75;;;;;;;;;;5022007;28;21074;-76
2023/05/10 04:53:17;;;;;;;7.50;1.30;;;;;;;;;;5022158;28;20104;-73
2023/05/10 04:55:43;;;;;;;7.80;2.55;;;;;;;;;;5019016;28;20118;-73
2023/05/10 04:58:09;;;;;;;7.38;2.05;;;;;;;;;;5024538;28;20025;-74
2023/05/10 05:00:36;;;;;;;6.50;2.03;;;;;;;;;;5017373;28;20576;-74
2023/05/10 05:03:02;;;;;;;7.90;1.73;;;;;;;;;;5025559;28;20021;-74
2023/05/10 05:05:28;;;;;;;9.75;1.77;;;;;;;;;;5022233;28;20554;-74
2023/05/10 05:07:54;;;;;;;6.68;1.25;;;;;;;;;;5021144;28;20116;-74
2023/05/10 05:10:20;;;;;;;7.10;1.48;;;;;;;;;;5022916;28;20111;-74
2023/05/10 05:12:46;;;;;;;7.20;1.42;;;;;;;;;;5018376;28;20166;-74
2023/05/10 05:15:12;;;;;;;5.55;0.95;;;;;;;;;;5023044;28;20047;-75
2023/05/10 05:17:38;;;;;;;5.63;1.23;;;;;;;;;;5022025;28;20036;-75
2023/05/10 05:20:05;;;;;;;4.28;0.90;;;;;;;;;;5023020;28;20140;-75
2023/05/10 05:22:31;;;;;;;6.85;1.25;;;;;;;;;;5021175;28;20301;-75
2023/05/10 05:24:58;;;;;;;5.70;0.90;;;;;;;;;;5017291;28;20439;-76
2023/05/10 05:27:25;;;;;;;6.68;1.10;;;;;;;;;;5019933;28;20270;-73
2023/05/10 05:29:55;;;;;;;5.78;1.40;;;;;;;;;;5015516;28;20558;-77
2023/05/10 05:32:22;;;;;;;4.80;1.33;;;;;;;;;;5019388;28;20051;-75
2023/05/10 05:34:48;;;;;;;7.25;1.40;;;;;;;;;;5018071;28;20482;-75
2023/05/10 05:37:15;;;;;;;4.35;1.05;;;;;;;;;;5023023;28;20065;-74
2023/05/10 05:39:42;;;;;;;4.20;1.13;;;;;;;;;;5020764;28;20381;-75
2023/05/10 05:42:09;;;;;;;5.75;1.83;;;;;;;;;;5023257;28;20040;-75
2023/05/10 05:44:35;;;;;;;7.93;2.10;;;;;;;;;;5025984;28;20040;-75
2023/05/10 05:47:01;;;;;;;8.23;2.20;;;;;;;;;;5020941;28;20040;-75
2023/05/10 05:49:27;;;;;;;10.50;2.47;;;;;;;;;;5020037;28;20024;-75
2023/05/10 05:51:53;;;;;;;9.18;2.42;;;;;;;;;;5023225;28;20481;-74
2023/05/10 05:54:19;;;;;;;7.93;2.00;;;;;;;;;;5019599;28;20485;-75
2023/05/10 05:56:46;;;;;;;7.22;1.90;;;;;;;;;;5020750;28;20124;-75
2023/05/10 05:59:12;;;;;;;6.63;1.40;;;;;;;;;;5023068;28;20447;-74
2023/05/10 06:01:38;;;;;;;7.40;1.15;;;;;;;;;;5018936;28;20277;-74
2023/05/10 06:04:04;;;;;;;3.80;1.10;;;;;;;;;;5023361;28;20384;-73
2023/05/10 06:06:32;;;;;;;9.98;2.30;;;;;;;;;;5021895;28;20102;-73
2023/05/10 06:08:58;;;;;;;8.98;2.00;;;;;;;;;;5016630;28;20028;-73
2023/05/10 06:11:25;;;;;;;10.35;1.80;;;;;;;;;;5020520;28;20229;-73
2023/05/10 06:13:51;;;;;;;6.07;1.40;;;;;;;;;;5018142;28;20566;-74
2023/05/10 06:16:17;;;;;;;6.95;1.10;;;;;;;;;;5019648;28;20033;-74
2023/05/10 06:18:43;;;;;;;7.80;1.55;;;;;;;;;;5019514;28;20501;-74
2023/05/10 06:21:09;;;;;;;9.05;1.27;;;;;;;;;;5022772;28;20488;-74
2023/05/10 06:23:36;;;;;;;7.90;1.30;;;;;;;;;;5019254;28;20519;-75
2023/05/10 06:26:02;;;;;;;7.03;1.40;;;;;;;;;;5021634;28;20041;-75
2023/05/10 06:28:31;;;;;;;5.85;1.38;;;;;;;;;;5020583;28;20519;-75
2023/05/10 06:30:57;;;;;;;8.13;1.42;;;;;;;;;;5019782;28;20392;-75
2023/05/10 06:33:23;;;;;;;5.80;1.08;;;;;;;;;;5021365;28;20029;-76
2023/05/10 06:35:49;;;;;;;6.00;1.40;;;;;;;;;;5014738;28;20566;-76
2023/05/10 06:38:15;;;;;;;7.97;1.13;;;;;;;;;;5020154;28;20123;-75
2023/05/10 06:40:42;;;;;;;5.55;1.05;;;;;;;;;;5017891;28;20614;-75
2023/05/10 06:43:08;;;;;;;4.53;1.10;;;;;;;;;;5021846;28;20311;-75
2023/05/10 06:45:34;;;;;;;4.05;0.88;;;;;;;;;;5019952;28;20043;-75
2023/05/10 06:48:01;;;;;;;6.20;1.20;;;;;;;;;;5022203;28;20031;-75
2023/05/10 06:50:27;;;;;;;5.35;0.95;;;;;;;;;;5022111;28;20376;-75
2023/05/10 06:52:53;;;;;;;6.47;1.30;;;;;;;;;;5017128;28;20021;-75
2023/05/10 06:55:19;;;;;;;5.97;1.30;;;;;;;;;;5019772;28;20572;-73
2023/05/10 06:57:45;;;;;;;5.43;1.00;;;;;;;;;;5017374;28;20029;-74
2023/05/10 07:00:12;;;;;;;7.35;1.38;;;;;;;;;;5018707;28;20123;-75
2023/05/10 07:02:38;;;;;;;8.25;1.83;;;;;;;;;;5018698;28;20136;-74
2023/05/10 07:05:04;;;;;;;6.78;1.60;;;;;;;;;;5019539;28;20396;-74
2023/05/10 07:07:31;;;;;;;9.30;2.38;;;;;;;;;;5020034;28;20107;-74
2023/05/10 07:09:57;;;;;;;7.10;1.35;;;;;;;;;;5017860;28;20037;-73
2023/05/10 07:12:24;;;;;;;6.50;1.70;;;;;;;;;;5024599;28;20021;-74
2023/05/10 07:14:50;;;;;;;7.00;1.33;;;;;;;;;;5022140;28;20693;-74
2023/05/10 07:17:16;;;;;;;7.15;1.20;;;;;;;;;;5027184;28;20032;-74
2023/05/10 07:19:42;;;;;;;7.05;1.38;;;;;;;;;;5021347;28;20047;-74
2023/05/10 07:22:08;;;;;;;8.80;2.05;;;;;;;;;;5023918;28;20079;-74
2023/05/10 07:24:35;;;;;;;6.97;1.58;;;;;;;;;;5021684;28;20033;-72
2023/05/10 07:27:01;;;;;;;5.97;1.25;;;;;;;;;;5022559;28;20029;-73
2023/05/10 07:29:28;;;;;;;7.00;1.80;;;;;;;;;;5021669;28;20082;-73
2023/05/10 07:31:54;;;;;;;6.93;1.48;;;;;;;;;;5025747;28;21260;-74
2023/05/10 07:34:20;;;;;;;7.30;1.67;;;;;;;;;;5026958;28;20400;-73
2023/05/10 07:36:46;;;;;;;6.57;1.50;;;;;;;;;;5024824;28;20063;-73
2023/05/10 07:39:12;;;;;;;8.32;1.50;;;;;;;;;;5023075;28;20061;-73
2023/05/10 07:41:39;;;;;;;5.05;0.98;;;;;;;;;;5022686;28;20112;-74
2023/05/10 07:44:05;;;;;;;7.65;1.20;;;;;;;;;;5018924;28;20029;-73
2023/05/10 07:46:31;;;;;;;6.25;1.23;;;;;;;;;;5026206;28;20178;-73
2023/05/10 07:48:57;;;;;;;6.32;1.10;;;;;;;;;;5024090;28;20490;-74
2023/05/10 07:51:23;;;;;;;5.78;1.75;;;;;;;;;;5026467;28;20028;-74
2023/05/10 07:53:50;;;;;;;7.55;1.20;;;;;;;;;;5023731;28;20029;-73
2023/05/10 07:56:25;;;;;;;6.90;1.23;;;;;;;;;;5019569;28;20037;-74
2023/05/10 07:58:51;;;;;;;5.97;1.13;;;;;;;;;;5018964;28;21324;-73
2023/05/10 08:01:18;;;;;;;7.57;1.42;;;;;;;;;;5020935;28;20129;-73
2023/05/10 08:03:44;;;;;;;5.22;1.13;;;;;;;;;;5024233;28;20060;-74
2023/05/10 08:06:10;;;;;;;6.05;1.40;;;;;;;;;;5020376;28;20033;-73
2023/05/10 08:08:37;;;;;;;6.80;1.20;;;;;;;;;;5020310;28;20090;-73
2023/05/10 08:11:04;;;;;;;6.97;1.27;;;;;;;;;;5021458;28;20028;-74
2023/05/10 08:13:31;;;;;;;8.02;1.15;;;;;;;;;;5023847;28;21074;-74
2023/05/10 08:15:57;;;;;;;7.68;1.20;;;;;;;;;;5023387;28;20029;-74
2023/05/10 08:18:23;;;;;;;5.82;1.10;;;;;;;;;;5021706;28;20146;-74
2023/05/10 08:20:49;;;;;;;8.00;1.30;;;;;;;;;;5022456;28;20787;-74
2023/05/10 08:23:16;;;;;;;7.47;1.35;;;;;;;;;;5022261;28;20043;-73
2023/05/10 08:25:42;;;;;;;9.73;1.60;;;;;;;;;;5022529;28;20112;-74
2023/05/10 08:28:08;;;;;;;6.45;1.27;;;;;;;;;;5021187;28;20036;-73
2023/05/10 08:30:35;;;;;;;6.97;1.30;;;;;;;;;;5022712;28;20136;-76
2023/05/10 08:33:01;;;;;;;7.18;1.40;;;;;;;;;;5024223;28;20032;-73
2023/05/10 08:35:27;;;;;;;5.47;1.23;;;;;;;;;;5021487;28;20480;-74
2023/05/10 08:37:53;;;;;;;4.68;1.10;;;;;;;;;;5020337;28;20025;-73
2023/05/10 08:40:20;;;;;;;10.68;1.40;;;;;;;;;;5020512;28;20538;-73
2023/05/10 08:43:07;;;;;;;5.78;1.20;;;;;;;;;;5021132;28;20163;-75
2023/05/10 08:45:34;;;;;;;8.13;1.20;;;;;;;;;;5021847;28;20033;-75
2023/05/10 08:48:03;;;;;;;8.30;1.38;;;;;;;;;;5024011;28;20033;-74
2023/05/10 08:50:30;;;;;;;7.80;1.27;;;;;;;;;;5022654;28;20016;-75
2023/05/10 08:52:58;;;;;;;5.15;0.90;;;;;;;;;;5022127;28;20265;-73
2023/05/10 08:55:24;;;;;;;6.03;0.85;;;;;;;;;;5024291;28;20549;-73
2023/05/10 08:57:50;;;;;;;8.02;1.27;;;;;;;;;;5021008;28;20388;-73
2023/05/10 09:00:18;;;;;;;5.95;1.00;;;;;;;;;;5022405;28;20055;-72
2023/05/10 09:02:45;;;;;;;5.20;1.00;;;;;;;;;;5021974;28;20029;-73
2023/05/10 09:05:11;;;;;;;5.32;1.10;;;;;;;;;;5021255;28;20012;-74
2023/05/10 09:07:37;;;;;;;7.18;1.30;;;;;;;;;;5019965;28;20146;-73
2023/05/10 09:10:05;;;;;;;9.82;1.50;;;;;;;;;;5018503;28;20235;-74
2023/05/10 09:12:31;;;;;;;5.43;0.80;;;;;;;;;;5019700;28;20037;-74
2023/05/10 09:14:58;;;;;;;5.00;1.15;;;;;;;;;;5018512;28;20040;-74
2023/05/10 09:17:26;;;;;;;6.30;1.05;;;;;;;;;;5023955;28;20590;-74
2023/05/10 09:19:58;;;;;;;6.68;1.48;;;;;;;;;;5017203;28;20056;-75
2023/05/10 09:22:24;;;;;;;7.50;1.33;;;;;;;;;;5023156;28;20032;-73
2023/05/10 09:25:04;;;;;;;6.00;1.30;;;;;;;;;;5018812;28;20025;-74
2023/05/10 09:27:30;;;;;;;8.40;1.80;;;;;;;;;;5024899;28;20112;-74
2023/05/10 09:29:56;;;;;;;6.68;1.40;;;;;;;;;;5019479;28;20028;-74
2023/05/10 09:32:22;;;;;;;11.07;1.38;;;;;;;;;;5023316;28;20033;-74
2023/05/10 09:34:50;;;;;;;7.55;1.40;;;;;;;;;;5019538;28;20451;-73
2023/05/10 09:37:16;;;;;;;7.38;1.50;;;;;;;;;;5021012;28;20089;-74
2023/05/10 09:39:43;;;;;;;6.93;1.30;;;;;;;;;;5020128;28;20033;-74
2023/05/10 09:42:10;;;;;;;6.43;1.40;;;;;;;;;;5020054;28;20405;-74
2023/05/10 09:44:37;;;;;;;8.40;1.50;;;;;;;;;;5018998;28;20365;-74
2023/05/10 09:47:04;;;;;;;8.75;1.90;;;;;;;;;;5019209;28;20037;-74
2023/05/10 09:49:30;;;;;;;8.40;1.50;;;;;;;;;;5020104;28;20385;-73
2023/05/10 09:52:02;;;;;;;7.82;1.38;;;;;;;;;;5018772;28;20308;-74
2023/05/10 09:54:29;;;;;;;8.38;1.60;;;;;;;;;;5022183;28;20410;-74
2023/05/10 09:56:55;;;;;;;9.35;1.80;;;;;;;;;;5020434;28;20033;-75
2023/05/10 09:59:21;;;;;;;6.65;1.55;;;;;;;;;;5025529;28;20412;-75
2023/05/10 10:01:51;;;;;;;7.00;1.58;;;;;;;;;;5015859;28;20025;-74
2023/05/10 10:04:17;;;;;;;9.30;1.70;;;;;;;;;;5022349;28;20037;-76
2023/05/10 10:06:43;;;;;;;9.23;1.60;;;;;;;;;;5016123;28;20028;-73
2023/05/10 10:09:10;;;;;;;9.32;1.80;;;;;;;;;;5021097;28;20061;-76
2023/05/10 10:11:37;;;;;;;8.20;1.70;;;;;;;;;;5016595;28;20034;-76
2023/05/10 10:14:03;;;;;;;5.50;1.48;;;;;;;;;;5024981;28;20539;-74
2023/05/10 10:16:29;;;;;;;9.23;2.05;;;;;;;;;;5017219;28;20548;-74
2023/05/10 10:18:56;;;;;;;9.40;2.03;;;;;;;;;;5018767;28;20439;-73
2023/05/10 10:21:22;;;;;;;10.07;2.40;;;;;;;;;;5019860;28;20029;-74
2023/05/10 10:23:49;;;;;;;11.25;2.40;;;;;;;;;;5019180;28;20040;-74
2023/05/10 10:26:17;;;;;;;12.00;2.35;;;;;;;;;;5019228;28;20041;-74
2023/05/10 10:28:55;;;;;;;14.00;2.92;;;;;;;;;;5015628;28;20569;-72
2023/05/10 10:31:40;;;;;;;10.25;2.22;;;;;;;;;;5021981;28;20037;-73
2023/05/10 10:34:07;;;;;;;10.75;2.40;;;;;;;;;;5021022;28;20482;-73
2023/05/10 10:36:40;;;;;;;11.27;2.25;;;;;;;;;;5020640;28;20057;-73
2023/05/10 10:39:10;;;;;;;10.95;2.10;;;;;;;;;;5021474;28;20476;-74
2023/05/10 10:41:37;;;;;;;11.95;2.20;;;;;;;;;;5013700;28;20057;-73
2023/05/10 10:44:22;;;;;;;11.35;2.33;;;;;;;;;;5015867;28;20052;-74
2023/05/10 10:47:11;;;;;;;12.80;2.42;;;;;;;;;;5016224;28;20068;-75
2023/05/10 10:49:46;;;;;;;10.77;2.38;;;;;;;;;;5020220;28;20103;-73
2023/05/10 10:52:23;;;;;;;11.10;2.78;;;;;;;;;;5025092;28;20033;-73
2023/05/10 10:54:54;;;;;;;12.30;2.55;;;;;;;;;;5026033;28;20811;-74
2023/05/10 10:57:26;;;;;;;10.52;2.17;;;;;;;;;;5022059;28;20087;-74
2023/05/10 10:59:52;;;;;;;13.10;2.45;;;;;;;;;;5019588;28;20063;-74
2023/05/10 11:02:37;;;;;;;10.40;2.20;;;;;;;;;;5023804;28;20581;-74
2023/05/10 11:05:21;;;;;;;9.75;2.25;;;;;;;;;;5026582;28;20377;-74
2023/05/10 11:07:55;;;;;;;9.10;2.05;;;;;;;;;;5022535;28;20369;-74
2023/05/10 11:10:22;;;;;;;12.52;2.20;;;;;;;;;;5021381;28;20041;-74
2023/05/10 11:13:04;;;;;;;10.18;2.40;;;;;;;;;;5020845;28;20029;-74
2023/05/10 11:15:34;;;;;;;10.05;2.15;;;;;;;;;;5022003;28;20037;-74
2023/05/10 11:18:16;;;;;;;11.70;2.28;;;;;;;;;;5024721;28;20082;-74
2023/05/10 11:20:42;;;;;;;15.48;2.72;;;;;;;;;;5020568;28;20606;-74
2023/05/10 11:23:13;;;;;;;11.65;2.55;;;;;;;;;;5021730;28;20595;-74
2023/05/10 11:25:45;;;;;;;10.13;2.13;;;;;;;;;;5016654;28;20563;-74
2023/05/10 11:28:12;;;;;;;11.52;2.17;;;;;;;;;;5021816;28;20323;-74
2023/05/10 11:30:39;;;;;;;9.77;2.20;;;;;;;;;;5019407;28;20017;-74
2023/05/10 11:33:06;;;;;;;9.07;1.80;;;;;;;;;;5026998;28;20179;-74
2023/05/10 11:35:37;;;;;;;9.10;1.67;;;;;;;;;;5018569;28;20037;-74
2023/05/10 11:38:05;;;;;;;10.57;1.85;;;;;;;;;;5025727;28;20039;-74
2023/05/10 11:40:31;;;;;;;10.00;2.08;;;;;;;;;;5020268;28;20786;-74
2023/05/10 11:42:58;;;;;;;9.60;2.42;;;;;;;;;;5019773;28;20025;-74
2023/05/10 11:45:24;;;;;;;7.05;1.60;;;;;;;;;;5025018;28;20584;-73
2023/05/10 11:47:50;;;;;;;10.57;2.30;;;;;;;;;;5023259;28;20029;-74
2023/05/10 11:50:17;;;;;;;9.52;1.80;;;;;;;;;;5023980;28;20205;-75
2023/05/10 11:52:44;;;;;;;7.78;1.40;;;;;;;;;;5024008;28;20029;-73
2023/05/10 11:55:10;;;;;;;9.68;1.85;;;;;;;;;;5019855;28;20029;-72
2023/05/10 11:57:38;;;;;;;8.98;2.03;;;;;;;;;;5018257;28;20420;-73
2023/05/10 12:00:05;;;;;;;8.88;2.00;;;;;;;;;;5020958;28;20091;-74
2023/05/10 12:02:31;;;;;;;7.57;1.83;;;;;;;;;;5022514;28;20044;-74
2023/05/10 12:04:57;;;;;;;10.30;1.85;;;;;;;;;;5019205;28;20033;-74
2023/05/10 12:07:23;;;;;;;9.27;1.77;;;;;;;;;;5023814;28;20571;-74
2023/05/10 12:10:08;;;;;;;8.15;1.52;;;;;;;;;;5020434;28;20480;-74
2023/05/10 12:12:38;;;;;;;6.78;1.60;;;;;;;;;;5026727;28;20037;-74
2023/05/10 12:15:06;;;;;;;7.10;1.55;;;;;;;;;;5022035;28;20029;-74
2023/05/10 12:17:32;;;;;;;9.07;1.90;;;;;;;;;;5025525;28;20033;-74
2023/05/10 12:20:15;;;;;;;7.63;1.65;;;;;;;;;;5017204;28;20039;-74
2023/05/10 12:22:41;;;;;;;9.15;1.80;;;;;;;;;;5018457;28;20405;-72
2023/05/10 12:25:08;;;;;;;9.55;2.28;;;;;;;;;;5020287;28;20460;-73
2023/05/10 12:27:35;;;;;;;7.60;1.60;;;;;;;;;;5017581;28;20504;-73
2023/05/10 12:30:02;;;;;;;10.88;2.30;;;;;;;;;;5021711;28;20039;-73
2023/05/10 12:32:41;;;;;;;11.50;2.67;;;;;;;;;;5017481;28;20029;-73
2023/05/10 12:35:08;;;;;;;12.10;2.67;;;;;;;;;;5018310;28;20032;-73
2023/05/10 12:37:38;;;;;;;13.55;2.88;;;;;;;;;;5017376;28;20045;-73
2023/05/10 12:40:06;;;;;;;11.68;2.85;;;;;;;;;;5020423;28;20600;-72
2023/05/10 12:42:32;;;;;;;14.88;3.30;;;;;;;;;;5020663;28;20143;-73
2023/05/10 12:44:58;;;;;;;14.95;3.08;;;;;;;;;;5017647;28;20056;-75
2023/05/10 12:47:25;;;;;;;11.32;2.85;;;;;;;;;;5020224;28;20033;-73
2023/05/10 12:49:51;;;;;;;12.80;3.20;;;;;;;;;;5015181;28;20032;-73
2023/05/10 12:52:17;;;;;;;12.15;2.92;;;;;;;;;;5019997;28;20067;-73
2023/05/10 12:54:43;;;;;;;14.32;3.10;;;;;;;;;;5015259;28;20043;-73
2023/05/10 12:57:10;;;;;;;13.23;2.72;;;;;;;;;;5020530;28;20497;-76
2023/05/10 12:59:36;;;;;;;14.73;3.28;;;;;;;;;;5018746;28;20215;-73
2023/05/10 13:02:02;;;;;;;15.52;3.38;;;;;;;;;;5018608;28;20028;-73
2023/05/10 13:04:28;;;;;;;12.75;3.35;;;;;;;;;;5018798;28;20032;-73
2023/05/10 13:06:58;;;;;;;12.82;2.75;;;;;;;;;;5014364;28;21102;-74
2023/05/10 13:09:25;;;;;;;13.65;3.13;;;;;;;;;;5018609;28;20116;-75
2023/05/10 13:11:53;;;;;;;14.95;3.00;;;;;;;;;;5016282;28;20021;-73
2023/05/10 13:14:20;;;;;;;12.57;2.67;;;;;;;;;;5018242;28;20037;-73
2023/05/10 13:16:46;;;;;;;12.60;2.85;;;;;;;;;;5016974;28;20079;-74
2023/05/10 13:19:13;;;;;;;11.43;2.72;;;;;;;;;;5019319;28;20148;-74
2023/05/10 13:21:44;;;;;;;14.85;3.20;;;;;;;;;;5018365;28;20087;-75
2023/05/10 13:24:10;;;;;;;15.02;2.97;;;;;;;;;;5019520;28;20563;-74
2023/05/10 13:26:36;;;;;;;10.07;2.67;;;;;;;;;;5014768;28;20037;-73
2023/05/10 13:29:03;;;;;;;15.27;3.10;;;;;;;;;;5018610;28;20086;-73
2023/05/10 13:31:29;;;;;;;13.30;2.95;;;;;;;;;;5016192;28;20029;-73
2023/05/10 13:33:55;;;;;;;11.25;2.90;;;;;;;;;;5014629;28;20505;-74
2023/05/10 13:36:22;;;;;;;12.43;2.83;;;;;;;;;;5018913;28;20096;-73
2023/05/10 13:38:48;;;;;;;11.10;2.13;;;;;;;;;;5016855;28;20387;-73
2023/05/10 13:41:15;;;;;;;11.23;2.70;;;;;;;;;;5019823;28;20033;-73
2023/05/10 13:43:41;;;;;;;11.95;2.85;;;;;;;;;;5014936;28;20037;-73
2023/05/10 13:46:07;;;;;;;12.85;2.90;;;;;;;;;;5017167;28;20044;-73
2023/05/10 13:48:33;;;;;;;13.20;2.75;;;;;;;;;;5017892;28;20029;-72
2023/05/10 13:50:59;;;;;;;11.63;2.80;;;;;;;;;;5020183;28;20017;-74
2023/05/10 13:53:25;;;;;;;13.15;3.00;;;;;;;;;;5018155;28;20030;-73
2023/05/10 13:55:52;;;;;;;12.43;2.80;;;;;;;;;;5014559;28;20118;-73
2023/05/10 13:58:18;;;;;;;12.20;2.53;;;;;;;;;;5017592;28;20033;-72
2023/05/10 14:00:44;;;;;;;11.43;2.60;;;;;;;;;;5012689;28;20033;-73
2023/05/10 14:03:10;;;;;;;9.57;2.40;;;;;;;;;;5016663;28;20571;-73
2023/05/10 14:05:36;;;;;;;11.20;2.35;;;;;;;;;;5015753;28;20750;-73
2023/05/10 14:08:03;;;;;;;12.07;3.13;;;;;;;;;;5020069;28;20036;-73
2023/05/10 14:10:30;;;;;;;11.18;2.80;;;;;;;;;;5016183;28;20064;-73
2023/05/10 14:12:56;;;;;;;14.82;3.05;;;;;;;;;;5013478;28;20484;-73
2023/05/10 14:15:22;;;;;;;12.95;3.05;;;;;;;;;;5014947;28;20025;-74
2023/05/10 14:17:49;;;;;;;15.35;2.65;;;;;;;;;;5013146;28;20060;-74
2023/05/10 14:20:15;;;;;;;13.20;2.97;;;;;;;;;;5018439;28;20139;-73
2023/05/10 14:22:41;;;;;;;10.63;2.72;;;;;;;;;;5017076;28;20516;-73
2023/05/10 14:25:07;;;;;;;12.93;2.42;;;;;;;;;;5017783;28;20124;-73
2023/05/10 14:27:33;;;;;;;11.80;2.70;;;;;;;;;;5016973;28;20041;-73
2023/05/10 14:30:00;;;;;;;12.02;2.97;;;;;;;;;;5014922;28;20541;-73
2023/05/10 14:32:27;;;;;;;13.80;3.05;;;;;;;;;;5017058;28;20025;-73
2023/05/10 14:34:53;;;;;;;10.55;3.00;;;;;;;;;;5014150;28;20472;-73
2023/05/10 14:37:19;;;;;;;11.05;2.45;;;;;;;;;;5016519;28;20056;-73
2023/05/10 14:39:45;;;;;;;11.18;2.53;;;;;;;;;;5017528;28;20547;-73
2023/05/10 14:42:12;;;;;;;10.55;2.88;;;;;;;;;;5018044;28;20456;-74
2023/05/10 14:44:38;;;;;;;14.73;3.30;;;;;;;;;;5014339;28;20033;-73
2023/05/10 14:47:05;;;;;;;12.50;3.20;;;;;;;;;;5019762;28;20029;-73
2023/05/10 14:49:31;;;;;;;10.65;2.78;;;;;;;;;;5018835;28;20051;-72
2023/05/10 14:51:57;;;;;;;13.68;3.08;;;;;;;;;;5017102;28;20797;-74
2023/05/10 14:54:23;;;;;;;13.93;3.15;;;;;;;;;;5015889;28;20460;-72